Angelo Coast Range Reserve, California Weather observations

Data are for 10 minute period ending at time listed.
 Day   Time   Solar   Ave.   Ave.  Ave.  Vector  Max.   Baro.   Total    
  of    of     Rad.   Air    Rel.  Wind   Wind   Wind  Press.  Precip.   
Year   Day            Temp.  Hum.  Speed  Dir.   Gust                    
2016   (PST)  Kw/m2    F      %     mph   deg.    mph    mb.     in.     
-------------------------------------------------------------------------
 204   15:40   0.64   85.9    25    3.9    34     8.8   969.4    0.00 
 204   15:50   0.61   85.9    24    3.5    24     8.5   969.3    0.00 
 204   16:00   0.58   86.0    23    4.2    26     9.6   969.3    0.00 
 204   16:10   0.56   85.9    22    3.6    12     8.4   969.3    0.00 
 204   16:20   0.52   86.2    22    3.3     1     7.6   969.2    0.00 
 204   16:30   0.48   86.5    22    2.5     6     7.7   969.1    0.00 
 204   16:40   0.47   86.1    23    2.5    29     7.0   969.1    0.00 
 204   16:50   0.43   85.6    24    3.4    30     8.3   969.0    0.00 
 204   17:00   0.41   85.7    25    1.9   344     4.9   969.0    0.00 
 204   17:10   0.37   84.8    26    3.1    11     7.0   968.9    0.00 
 204   17:20   0.34   83.8    28    2.8   359     7.3   968.9    0.00 
 204   17:30   0.13   81.2    31    2.2   325     4.7   968.9    0.00 
 204   17:40   0.04   80.6    32    1.2   320     4.6   968.8    0.00 
 204   17:50   0.03   79.7    34    1.8   345     5.2   968.8    0.00 
 204   18:00   0.03   79.3    34    1.6    26     5.2   968.8    0.00 
 204   18:10   0.03   78.7    36    2.5   343     6.6   968.8    0.00 
 204   18:20   0.03   78.0    36    1.9   332     5.0   968.7    0.00 
 204   18:30   0.03   77.2    38    1.4   318     4.7   968.6    0.00 
 204   18:40   0.02   76.2    40    1.6   282     5.6   968.6    0.00 
 204   18:50   0.01   75.0    42    0.7   307     3.0   968.6    0.00 
 204   19:00   0.01   73.6    45    1.0   325     3.0   968.6    0.00 
 204   19:10   0.01   72.4    48    1.5   356     3.4   968.5    0.00 
 204   19:20   0.01   71.7    48    1.5   339     2.4   968.5    0.00 
 204   19:30   0.00   70.8    49    1.1   335     2.0   968.4    0.00 
 204   19:40   0.00   69.8    51    0.2   348     1.2   968.4    0.00 
 204   19:50   0.00   68.8    52    1.2   349     2.2   968.5    0.00 
 204   20:00   0.00   67.9    54    0.4   324     1.5   968.5    0.00 
 204   20:10   0.00   67.1    55    1.3   329     2.3   968.6    0.00 
 204   20:20   0.00   66.5    56    1.0   341     1.8   968.6    0.00 
 204   20:30   0.00   65.8    56    0.1   322     1.5   968.7    0.00 
 204   20:40   0.00   65.0    58    0.7   342     1.6   968.7    0.00 
 204   20:50   0.00   64.5    59    1.1   352     2.6   968.9    0.00 
 204   21:00   0.00   63.9    59    0.6   323     1.4   969.0    0.00 
 204   21:10   0.00   63.1    61    0.3   346     1.0   969.1    0.00 
 204   21:20   0.00   62.6    61    0.1   316     1.0   969.2    0.00 
 204   21:30   0.00   62.0    62    0.2   305     1.2   969.2    0.00 
 204   21:40   0.00   61.2    63    0.2   335     1.4   969.1    0.00 
 204   21:50   0.00   60.8    64    0.2   356     0.9   969.2    0.00 
 204   22:00   0.00   60.3    65    0.0     0     0.5   969.2    0.00 
 204   22:10   0.00   59.7    66    0.3   318     1.0   969.2    0.00 
 204   22:20   0.00   59.2    66    0.2   330     1.1   969.2    0.00 
 204   22:30   0.00   58.7    68    0.0     0     0.0   969.2    0.00 
 204   22:40   0.00   58.3    68    0.3   334     1.2   969.2    0.00 
 204   22:50   0.00   58.0    68    0.6   331     1.2   969.2    0.00 
 204   23:00   0.00   57.5    69    0.4   322     1.3   969.3    0.00 
 204   23:10   0.00   57.2    70    0.1   321     1.1   969.3    0.00 
 204   23:20   0.00   56.8    71    0.0     0     0.0   969.2    0.00 
 204   23:30   0.00   56.4    72    0.3   327     1.7   969.2    0.00 
 204   23:40   0.00   56.1    73    0.4   349     2.0   969.1    0.00 
 204   23:50   0.00   55.8    74    0.7   329     1.8   969.1    0.00 
 205    0:00   0.00   55.4    74    0.4   333     1.3   969.1    0.00 
 205    0:10   0.00   55.1    75    0.6   337     1.4   969.2    0.00 
 205    0:20   0.00   54.7    76    0.3   317     1.2   969.2    0.00 
 205    0:30   0.00   54.4    76    0.7   329     1.6   969.0    0.00 
 205    0:40   0.00   54.1    77    0.7   342     1.6   968.9    0.00 
 205    0:50   0.00   53.7    78    1.0   347     2.0   968.8    0.00 
 205    1:00   0.00   53.4    80    0.5   318     1.8   968.8    0.00 
 205    1:10   0.00   53.0    80    0.5   332     1.5   968.6    0.00 
 205    1:20   0.00   52.7    81    0.1   327     1.0   968.6    0.00 
 205    1:30   0.00   52.5    82    0.9   321     1.7   968.6    0.00 
 205    1:40   0.00   52.3    82    0.6   341     1.5   968.5    0.00 
 205    1:50   0.00   52.0    83    0.5   334     1.6   968.5    0.00 
 205    2:00   0.00   51.5    85    0.8   328     1.5   968.3    0.00 
 205    2:10   0.00   51.3    85    0.8   352     1.8   968.2    0.00 
 205    2:20   0.00   51.1    86    0.8   327     1.4   968.2    0.00 
 205    2:30   0.00   50.8    87    1.1   347     1.8   968.2    0.00 
 205    2:40   0.00   50.7    87    0.1   313     0.8   968.1    0.00 
 205    2:50   0.00   50.3    88    0.9   324     1.5   968.0    0.00 
 205    3:00   0.00   50.1    88    1.1   341     1.9   968.0    0.00 
 205    3:10   0.00   49.9    89    1.0   333     1.5   968.0    0.00 
 205    3:20   0.00   49.6    90    0.7   334     1.4   968.0    0.00 
 205    3:30   0.00   49.3    90    0.9   334     1.5   967.9    0.00 
 205    3:40   0.00   49.1    90    0.7     4     1.5   967.9    0.00 
 205    3:50   0.00   48.7    92    1.0   341     1.5   967.8    0.00 
 205    4:00   0.00   48.6    92    0.8   340     1.2   967.8    0.00 
 205    4:10   0.00   48.3    92    0.8   330     1.5   967.8    0.00 
 205    4:20   0.00   48.1    93    0.6   330     1.1   967.7    0.00 
 205    4:30   0.00   47.8    93    1.0   342     1.3   967.8    0.00 
 205    4:40   0.00   47.8    93    1.0   348     1.6   967.8    0.00 
 205    4:50   0.00   47.7    94    0.9   312     1.5   967.7    0.00 
 205    5:00   0.00   47.5    94    0.9   345     1.4   967.7    0.00 
 205    5:10   0.00   47.4    94    1.2   333     1.8   967.7    0.00 
 205    5:20   0.00   47.2    94    0.5   350     1.6   967.7    0.00 
 205    5:30   0.00   46.9    94    0.1     0     0.7   967.8    0.00 
 205    5:40   0.01   46.9    95    0.0     0     0.0   967.8    0.00 
 205    5:50   0.01   46.9    95    0.0     0     0.0   967.7    0.00 
 205    6:00   0.01   46.9    95    0.0     0     0.0   967.8    0.00 
 205    6:10   0.01   46.9    95    0.0     0     0.2   967.8    0.00 
 205    6:20   0.01   47.0    95    0.5     0     1.2   967.9    0.00 
 205    6:30   0.01   47.2    94    0.6     0     1.2   967.8    0.00 
 205    6:40   0.01   47.3    94    1.1     8     1.8   967.9    0.00 
 205    6:50   0.01   47.6    93    0.7   184     1.4   967.9    0.00 
 205    7:00   0.01   47.7    92    0.8   174     1.5   968.0    0.00 
 205    7:10   0.03   48.1    91    0.0   171     0.5   967.9    0.00 
 205    7:20   0.03   48.7    90    0.1    28     1.5   967.9    0.00 
 205    7:30   0.03   50.1    86    0.1   157     0.7   967.8    0.00 
 205    7:40   0.03   51.5    83    0.0     0     0.0   967.9    0.00 
 205    7:50   0.04   52.7    80    0.1    93     0.9   967.8    0.00 
 205    8:00   0.06   54.3    77    0.2   112     1.1   967.8    0.00 
 205    8:10   0.31   56.9    71    1.2    94     2.0   967.8    0.00 
 205    8:20   0.51   61.0    63    1.4    96     1.9   967.6    0.00 
 205    8:30   0.54   64.6    58    1.6    99     2.4   967.6    0.00 
 205    8:40   0.57   65.9    56    1.4   108     2.1   967.4    0.00 
 205    8:50   0.60   66.9    55    2.1    88     2.8   967.2    0.00 
 205    9:00   0.63   67.9    54    2.1    82     3.4   967.1    0.00 
 205    9:10   0.65   68.1    54    1.3    96     2.0   967.1    0.00 
 205    9:20   0.66   69.0    54    0.4   113     1.7   967.0    0.00 
 205    9:30   0.68   70.4    52    1.2    78     2.7   966.9    0.00 
 205    9:40   0.72   73.2    48    2.1    54     4.5   967.0    0.00 
 205    9:50   0.75   75.8    44    1.7   114     4.8   967.1    0.00 
 205   10:00   0.77   75.5    45    0.7   114     2.4   967.2    0.00 
 205   10:10   0.79   76.6    44    1.6   132     3.6   967.2    0.00 
 205   10:20   0.81   79.2    40    1.7    63     4.5   967.1    0.00 
 205   10:30   0.83   81.3    38    1.2    38     4.2   967.0    0.00 
 205   10:40   0.78   83.4    35    1.3   322     4.2   967.0    0.00 
 205   10:50   0.76   84.6    34    2.2    49     6.2   966.9    0.00 
 205   11:00   0.79   85.5    34    2.4   332     6.1   966.8    0.00 
 205   11:10   0.88   85.1    34    2.1    53     4.8   966.8    0.00 
 205   11:20   0.90   85.9    34    2.6   336     6.2   966.7    0.00 
 205   11:30   0.90   86.8    33    3.0    28     6.9   966.5    0.00 
 205   11:40   0.91   87.0    33    2.5    49     6.2   966.5    0.00 
 205   11:50   0.91   86.7    32    3.1    16     8.2   966.4    0.00 
 205   12:00   0.91   86.5    33    3.3    13     8.8   966.3    0.00 
 205   12:10   0.91   86.7    32    3.5    16    10.4   966.3    0.00 
 205   12:20   0.91   87.3    31    3.0   286     7.1   966.3    0.00 
 205   12:30   0.91   88.1    31    2.6    12     9.2   966.2    0.00 
 205   12:40   0.91   88.1    30    2.7     0     6.8   966.2    0.00 
 205   12:50   0.91   89.4    29    2.2   339     6.1   966.1    0.00 
 205   13:00   0.91   90.4    28    2.2   325     5.9   966.0    0.00 
 205   13:10   0.90   89.9    27    3.2   354     8.8   965.9    0.00 
 205   13:20   0.90   90.3    26    2.7   348     7.2   965.8    0.00 
 205   13:30   0.89   89.8    25    3.2   356     8.1   965.7    0.00 
 205   13:40   0.84   90.4    24    2.7    11     6.7   965.6    0.00 
 205   13:50   0.87   90.4    24    4.2    43    11.1   965.5    0.00 
 205   14:00   0.86   91.0    23    2.6    47     8.7   965.4    0.00 
 205   14:10   0.85   90.5    22    3.4    19    10.2   965.2    0.00 
 205   14:20   0.83   91.6    22    3.1    24     9.1   965.2    0.00 
 205   14:30   0.81   91.7    22    3.6    26     8.5   965.1    0.00 
 205   14:40   0.79   91.1    22    3.4    36    10.3   965.0    0.00 
 205   14:50   0.77   91.8    21    3.8   346    10.4   964.8    0.00 
 205   15:00   0.75   91.5    22    3.1   334     8.7   964.7    0.00 
 205   15:10   0.72   92.9    21    2.9    30     7.6   964.6    0.00 
 205   15:20   0.70   91.8    20    4.9    14    13.5   964.6    0.00 
 205   15:30   0.67   91.4    20    3.4    20    12.4   964.6    0.00 

Return to Angelo Coast Range Reserve graphs page.


Western Regional Climate Center,wrcc@dri.edu